Time;durP1;ratioP1;P1;durP2;ratioP2;P2;SDS_P1;SDS_P2;PMS_P1;PMS_P2;Temp;Humidity;BMP_temperature;BMP_pressure;BME280_temperature;BME280_humidity;BME280_pressure;Samples;Min_cycle;Max_cycle;Signal;HPM_P1;HPM_P2
2022/08/03 00:01:16;;;;;;;2.37;2.17;;;19.80;99.90;;;;;;5034972;28;20192;-88
2022/08/03 00:03:42;;;;;;;2.70;2.50;;;19.80;99.90;;;;;;5022179;28;20181;-86
2022/08/03 00:06:07;;;;;;;2.93;2.40;;;19.80;99.90;;;;;;5058514;28;20411;-87
2022/08/03 00:08:33;;;;;;;3.00;2.70;;;19.70;99.90;;;;;;5058518;28;20166;-86
2022/08/03 00:10:58;;;;;;;3.07;2.20;;;20.10;99.90;;;;;;5035339;28;20662;-90
2022/08/03 00:13:24;;;;;;;2.30;2.10;;;19.60;99.90;;;;;;5014554;28;20269;-91
2022/08/03 00:15:50;;;;;;;3.40;2.30;;;19.50;99.90;;;;;;5035680;28;20255;-91
2022/08/03 00:18:16;;;;;;;6.50;2.60;;;19.50;99.90;;;;;;5029716;28;20471;-91
2022/08/03 00:20:42;;;;;;;4.30;2.73;;;19.50;99.90;;;;;;5021009;28;20449;-90
2022/08/03 00:23:08;;;;;;;5.27;2.27;;;19.40;99.90;;;;;;5035689;28;20826;-91
2022/08/03 00:25:34;;;;;;;2.70;2.40;;;19.30;99.90;;;;;;5025348;28;20435;-91
2022/08/03 00:28:01;;;;;;;3.17;2.43;;;19.50;99.90;;;;;;5017452;28;20194;-91
2022/08/03 00:30:27;;;;;;;5.93;2.00;;;19.30;99.90;;;;;;5027235;28;20542;-90
2022/08/03 00:32:52;;;;;;;2.80;2.33;;;19.40;99.90;;;;;;5039419;28;20888;-91
2022/08/03 00:35:18;;;;;;;2.53;2.20;;;19.30;99.90;;;;;;5056670;28;20452;-90
2022/08/03 00:37:43;;;;;;;3.07;2.70;;;19.30;99.90;;;;;;5048455;28;20173;-90
2022/08/03 00:40:11;;;;;;;3.77;2.30;;;19.40;99.90;;;;;;5018626;28;20193;-91
2022/08/03 00:42:57;;;;;;;4.50;2.10;;;19.40;99.90;;;;;;5022075;28;20182;-91
2022/08/03 00:45:28;;;;;;;2.67;2.33;;;19.40;99.90;;;;;;5032305;28;20515;-90
2022/08/03 00:47:54;;;;;;;3.57;2.40;;;19.40;99.90;;;;;;5013293;28;20447;-90
2022/08/03 00:50:22;;;;;;;4.10;2.63;;;19.40;99.90;;;;;;5019014;28;20460;-85
2022/08/03 00:52:48;;;;;;;2.17;1.97;;;19.70;99.90;;;;;;5017901;28;20529;-83
2022/08/03 00:55:14;;;;;;;2.73;2.17;;;19.40;99.90;;;;;;5015604;28;20457;-86
2022/08/03 00:57:42;;;;;;;5.80;3.00;;;19.40;99.90;;;;;;5035336;28;20447;-85
2022/08/03 01:00:09;;;;;;;3.40;2.87;;;19.30;99.90;;;;;;5036910;28;20520;-84
2022/08/03 01:02:36;;;;;;;5.50;2.73;;;19.20;99.90;;;;;;5027102;28;20469;-86
2022/08/03 01:05:03;;;;;;;2.43;2.10;;;19.10;99.90;;;;;;5015090;28;20425;-85
2022/08/03 01:07:58;;;;;;;3.00;2.17;;;19.00;99.90;;;;;;5023419;28;20435;-84
2022/08/03 01:10:45;;;;;;;3.47;3.00;;;18.90;99.90;;;;;;5014613;28;21338;-85
2022/08/03 01:13:43;;;;;;;2.00;1.90;;;18.90;99.90;;;;;;5032040;28;20511;-84
2022/08/03 01:16:22;;;;;;;5.20;2.87;;;18.90;99.90;;;;;;5014830;28;20440;-85
2022/08/03 01:18:59;;;;;;;2.70;2.00;;;18.90;99.90;;;;;;5009339;28;21060;-86
2022/08/03 01:21:32;;;;;;;2.53;2.33;;;18.90;99.90;;;;;;5013524;28;20617;-85
2022/08/03 01:24:28;;;;;;;2.50;2.30;;;18.90;99.90;;;;;;5012156;28;20429;-84
2022/08/03 01:27:03;;;;;;;2.27;2.07;;;18.90;99.90;;;;;;5028064;28;20416;-85
2022/08/03 01:29:56;;;;;;;3.63;3.17;;;18.90;99.90;;;;;;5029858;28;20570;-84
2022/08/03 01:32:29;;;;;;;2.30;2.10;;;18.90;99.90;;;;;;5031366;28;20436;-86
2022/08/03 01:35:03;;;;;;;3.60;2.40;;;18.70;99.90;;;;;;5010563;28;20476;-86
2022/08/03 01:37:38;;;;;;;3.20;2.47;;;18.60;99.90;;;;;;5027556;28;20420;-86
2022/08/03 01:40:05;;;;;;;4.07;2.43;;;18.60;99.90;;;;;;5007822;28;21011;-84
2022/08/03 01:42:32;;;;;;;3.50;2.37;;;18.60;99.90;;;;;;5020360;28;20425;-86
2022/08/03 01:45:00;;;;;;;4.03;2.40;;;18.60;99.90;;;;;;5023455;28;20451;-85
2022/08/03 01:47:27;;;;;;;2.50;2.30;;;18.60;99.90;;;;;;5032633;28;20444;-85
2022/08/03 01:49:55;;;;;;;6.63;2.37;;;18.50;99.90;;;;;;5019888;28;21061;-86
2022/08/03 01:52:21;;;;;;;2.73;2.43;;;18.40;99.90;;;;;;5026996;28;20433;-84
2022/08/03 01:54:50;;;;;;;3.00;2.80;;;18.50;99.90;;;;;;5030233;28;20455;-85
2022/08/03 01:57:18;;;;;;;4.60;2.47;;;18.30;99.90;;;;;;5012612;28;20520;-86
2022/08/03 01:59:47;;;;;;;3.60;2.90;;;18.30;99.90;;;;;;5029831;28;20522;-86
2022/08/03 02:02:14;;;;;;;6.80;2.80;;;18.30;99.90;;;;;;4997923;23;21404;-88
2022/08/03 02:04:42;;;;;;;3.17;2.87;;;19.70;99.90;;;;;;4944418;28;20479;-92
2022/08/03 02:07:09;;;;;;;2.70;2.50;;;19.50;99.90;;;;;;4944219;28;20461;-88
2022/08/03 02:09:38;;;;;;;2.50;2.23;;;20.00;99.90;;;;;;4951331;28;20503;-88
2022/08/03 02:12:09;;;;;;;2.73;2.03;;;17.00;99.90;;;;;;4947877;28;20461;-89
2022/08/03 02:14:35;;;;;;;2.87;2.30;;;18.90;99.90;;;;;;4943970;28;20467;-91
2022/08/03 02:17:02;;;;;;;2.63;2.30;;;19.50;99.90;;;;;;4940956;28;20451;-89
2022/08/03 02:19:29;;;;;;;3.90;2.40;;;18.30;99.90;;;;;;4949248;29;20444;-90
2022/08/03 02:21:57;;;;;;;3.10;2.10;;;19.10;99.90;;;;;;4948070;28;20488;-89
2022/08/03 02:24:22;;;;;;;2.80;2.40;;;19.70;99.90;;;;;;4940985;28;20432;-89
2022/08/03 02:26:50;;;;;;;7.50;3.20;;;18.30;99.90;;;;;;4951584;28;20467;-89
2022/08/03 02:29:20;;;;;;;3.50;2.50;;;18.30;99.90;;;;;;4948859;28;20720;-88
2022/08/03 02:31:49;;;;;;;4.43;2.47;;;18.70;99.90;;;;;;4960726;28;20456;-89
2022/08/03 02:34:16;;;;;;;4.43;2.53;;;18.40;99.90;;;;;;4941300;28;20463;-90
2022/08/03 02:36:46;;;;;;;2.80;2.60;;;19.60;99.90;;;;;;4943671;28;20465;-90
2022/08/03 02:39:14;;;;;;;3.90;2.40;;;20.10;99.90;;;;;;4954009;28;20466;-89
2022/08/03 02:41:44;;;;;;;4.30;2.67;;;19.90;99.90;;;;;;4948094;28;20433;-90
2022/08/03 02:44:11;;;;;;;4.80;2.87;;;19.60;99.90;;;;;;4947500;28;20493;-89
2022/08/03 02:46:41;;;;;;;3.80;2.40;;;20.00;99.90;;;;;;4959988;28;20494;-87
2022/08/03 02:49:09;;;;;;;3.20;2.97;;;18.30;99.90;;;;;;4947371;28;21060;-88
2022/08/03 02:51:36;;;;;;;2.60;2.40;;;18.40;99.90;;;;;;4948029;28;20440;-92
2022/08/03 02:54:03;;;;;;;3.17;2.87;;;18.20;99.90;;;;;;4954623;28;20467;-92
2022/08/03 02:56:30;;;;;;;4.10;2.70;;;18.10;99.90;;;;;;4954306;28;20471;-91
2022/08/03 02:58:58;;;;;;;4.63;2.67;;;19.50;99.90;;;;;;4953188;28;20968;-89
2022/08/03 03:01:25;;;;;;;3.10;2.43;;;18.70;99.90;;;;;;4953786;28;20461;-89
2022/08/03 03:03:52;;;;;;;4.33;2.97;;;19.40;99.90;;;;;;4949677;28;20468;-89
2022/08/03 03:06:31;;;;;;;2.40;2.20;;;19.60;99.90;;;;;;4982508;28;20461;-92
2022/08/03 03:08:58;;;;;;;4.10;3.30;;;17.00;99.90;;;;;;4974814;28;20435;-90
2022/08/03 03:11:25;;;;;;;3.77;3.10;;;17.90;99.90;;;;;;4959686;28;20455;-90
2022/08/03 03:13:52;;;;;;;2.73;2.53;;;19.50;99.90;;;;;;4957651;28;20486;-89
2022/08/03 03:16:18;;;;;;;3.03;2.83;;;17.90;99.90;;;;;;4966821;28;20462;-89
2022/08/03 03:18:46;;;;;;;3.83;2.60;;;16.50;99.90;;;;;;4961219;28;20477;-88
2022/08/03 03:21:15;;;;;;;3.43;3.03;;;19.40;99.90;;;;;;4952586;28;20433;-89
2022/08/03 03:23:41;;;;;;;2.60;2.40;;;17.50;99.90;;;;;;4940877;28;20433;-90
2022/08/03 03:26:08;;;;;;;2.60;2.40;;;17.60;99.90;;;;;;4940285;28;20869;-88
2022/08/03 03:28:37;;;;;;;3.60;3.10;;;18.90;99.90;;;;;;4945938;28;21075;-90
2022/08/03 03:31:05;;;;;;;4.00;2.60;;;18.20;99.90;;;;;;4949681;28;20519;-87
2022/08/03 03:33:31;;;;;;;2.97;2.77;;;18.60;99.90;;;;;;4939876;28;20502;-88
2022/08/03 03:35:58;;;;;;;6.50;3.00;;;18.10;99.90;;;;;;4943330;28;20531;-89
2022/08/03 03:38:23;;;;;;;4.37;2.27;;;18.20;99.90;;;;;;4944036;28;20523;-88
2022/08/03 03:40:49;;;;;;;2.67;2.47;;;17.90;99.90;;;;;;4952296;28;20449;-87
2022/08/03 03:43:17;;;;;;;3.10;2.80;;;18.80;99.90;;;;;;4953550;28;20226;-88
2022/08/03 03:45:43;;;;;;;3.93;2.90;;;17.70;99.90;;;;;;4958477;28;20211;-90
2022/08/03 03:48:10;;;;;;;5.07;3.93;;;17.60;99.90;;;;;;4954814;28;20454;-88
2022/08/03 03:50:36;;;;;;;4.33;3.53;;;17.50;99.90;;;;;;4958178;28;20436;-90
2022/08/03 03:53:03;;;;;;;5.43;3.67;;;18.50;99.90;;;;;;4956064;28;20989;-91
2022/08/03 03:55:29;;;;;;;3.67;3.37;;;18.80;99.90;;;;;;4965236;28;20471;-91
2022/08/03 03:57:56;;;;;;;4.40;3.20;;;17.40;99.90;;;;;;4955882;28;20437;-91
2022/08/03 04:00:25;;;;;;;5.20;4.13;;;16.50;99.90;;;;;;4952505;28;20567;-89
2022/08/03 04:02:51;;;;;;;4.60;3.10;;;17.30;99.90;;;;;;4958138;28;20484;-91
2022/08/03 04:11:12;;;;;;;3.83;3.53;;;17.50;99.90;;;;;;4956638;28;20435;-91
2022/08/03 04:13:42;;;;;;;4.80;3.07;;;17.40;99.90;;;;;;4971740;28;20449;-90
2022/08/03 04:16:12;;;;;;;5.17;3.10;;;17.50;99.90;;;;;;4964304;28;20483;-91
2022/08/03 04:18:43;;;;;;;6.70;2.90;;;19.10;99.90;;;;;;4955978;28;20448;-90
2022/08/03 04:21:15;;;;;;;5.80;3.30;;;17.50;99.90;;;;;;4938022;29;20457;-91
2022/08/03 04:23:45;;;;;;;4.53;3.47;;;17.60;99.90;;;;;;4955658;29;20436;-90
2022/08/03 04:26:13;;;;;;;4.23;3.50;;;19.50;99.90;;;;;;4948538;28;20463;-89
2022/08/03 04:28:42;;;;;;;4.27;2.90;;;17.90;99.90;;;;;;4950634;28;20428;-90
2022/08/03 04:31:08;;;;;;;3.73;3.30;;;17.90;99.90;;;;;;4948292;28;20444;-89
2022/08/03 04:33:37;;;;;;;6.10;3.40;;;18.00;99.90;;;;;;4958338;28;20459;-91
2022/08/03 04:36:08;;;;;;;6.70;4.00;;;18.10;99.90;;;;;;4973598;28;20216;-90
2022/08/03 04:38:43;;;;;;;6.00;4.40;;;19.90;99.90;;;;;;4961883;28;20462;-87
2022/08/03 04:41:09;;;;;;;7.77;5.23;;;20.50;99.90;;;;;;4950899;28;20436;-90
2022/08/03 04:43:38;;;;;;;8.50;6.50;;;21.50;99.90;;;;;;4970540;28;20456;-90
2022/08/03 04:46:05;;;;;;;8.83;4.50;;;23.30;99.90;;;;;;4966770;28;20445;-89
2022/08/03 04:48:32;;;;;;;5.33;4.53;;;24.50;99.90;;;;;;4965376;28;20452;-88
2022/08/03 04:50:59;;;;;;;6.73;4.83;;;26.00;99.90;;;;;;4949884;28;20455;-90
2022/08/03 04:53:25;;;;;;;4.97;4.47;;;27.40;99.90;;;;;;4952450;28;20444;-91
2022/08/03 04:55:50;;;;;;;5.27;4.70;;;28.00;98.50;;;;;;4947911;28;20468;-88
2022/08/03 04:58:16;;;;;;;5.23;4.57;;;29.30;95.40;;;;;;4949277;28;20661;-89
2022/08/03 05:00:44;;;;;;;5.20;4.80;;;30.50;91.20;;;;;;4951019;28;20199;-89
2022/08/03 05:03:19;;;;;;;6.23;4.90;;;32.00;87.20;;;;;;4943151;28;20193;-88
2022/08/03 05:05:44;;;;;;;4.80;4.40;;;34.20;79.00;;;;;;4937880;28;21175;-89
2022/08/03 05:08:10;;;;;;;4.67;4.27;;;34.60;70.80;;;;;;4945311;28;20555;-90
2022/08/03 05:10:37;;;;;;;10.20;4.80;;;33.40;65.00;;;;;;4943535;28;20190;-91
2022/08/03 05:13:03;;;;;;;5.77;4.97;;;34.00;63.20;;;;;;4950725;28;20433;-93
2022/08/03 05:15:29;;;;;;;5.20;4.73;;;34.00;62.30;;;;;;4923044;28;20481;-89
2022/08/03 05:17:55;;;;;;;9.63;4.80;;;34.10;61.70;;;;;;4939396;28;20562;-89
2022/08/03 05:20:20;;;;;;;5.87;5.47;;;35.70;60.60;;;;;;4941035;28;20271;-87
2022/08/03 05:22:48;;;;;;;8.00;5.37;;;35.50;58.30;;;;;;4939825;28;20217;-89
2022/08/03 05:25:14;;;;;;;9.77;4.80;;;37.20;56.60;;;;;;4940936;28;20231;-90
2022/08/03 05:27:39;;;;;;;6.50;6.00;;;37.30;54.50;;;;;;4945446;28;20478;-89
2022/08/03 05:30:05;;;;;;;6.47;5.80;;;37.60;52.30;;;;;;4945410;28;20298;-88
2022/08/03 05:32:31;;;;;;;7.70;6.90;;;37.60;51.60;;;;;;4940622;29;20668;-88
2022/08/03 05:35:01;;;;;;;6.53;6.03;;;37.70;50.50;;;;;;4937834;28;20464;-91
2022/08/03 05:37:27;;;;;;;7.93;7.23;;;37.60;49.70;;;;;;4935312;28;20538;-89
2022/08/03 05:39:53;;;;;;;6.67;6.27;;;37.10;49.50;;;;;;4940212;28;20514;-90
2022/08/03 05:42:18;;;;;;;7.77;7.17;;;37.20;49.90;;;;;;4937530;28;20202;-89
2022/08/03 05:44:44;;;;;;;9.57;8.30;;;37.90;49.70;;;;;;4938469;28;20260;-89
2022/08/03 05:47:09;;;;;;;9.07;8.40;;;38.70;48.60;;;;;;4937608;28;20219;-86
2022/08/03 05:49:35;;;;;;;10.03;9.33;;;39.50;46.70;;;;;;4943785;28;20871;-91
2022/08/03 05:52:01;;;;;;;9.70;9.10;;;39.40;45.60;;;;;;4933082;28;20195;-88
2022/08/03 05:54:27;;;;;;;10.10;9.30;;;40.00;45.30;;;;;;4939553;28;20471;-88
2022/08/03 05:56:53;;;;;;;11.30;10.43;;;40.30;44.80;;;;;;4941052;28;20207;-88
2022/08/03 05:59:20;;;;;;;9.90;9.30;;;40.20;43.40;;;;;;4951219;28;20184;-86
2022/08/03 06:01:46;;;;;;;10.53;9.50;;;40.40;44.30;;;;;;4934379;28;20478;-90
2022/08/03 06:04:16;;;;;;;10.87;10.07;;;41.20;42.70;;;;;;4943411;28;21074;-89
2022/08/03 06:06:45;;;;;;;10.60;9.70;;;40.80;41.20;;;;;;4957664;28;20440;-87
2022/08/03 06:09:12;;;;;;;10.73;10.03;;;40.00;42.60;;;;;;4953174;28;20439;-88
2022/08/03 06:11:40;;;;;;;10.30;9.70;;;40.20;42.50;;;;;;4941847;28;20536;-90
2022/08/03 06:14:05;;;;;;;11.37;10.33;;;40.00;43.30;;;;;;4943274;28;21469;-89
2022/08/03 06:16:32;;;;;;;12.10;11.17;;;40.10;42.40;;;;;;4943125;28;20464;-89
2022/08/03 06:18:58;;;;;;;11.43;10.73;;;40.30;42.10;;;;;;4954768;28;20204;-88
2022/08/03 06:21:23;;;;;;;11.50;10.80;;;41.70;41.00;;;;;;5037466;28;20452;-88
2022/08/03 06:23:49;;;;;;;12.03;11.23;;;42.30;40.50;;;;;;4942932;28;20227;-88
2022/08/03 06:26:15;;;;;;;12.43;11.60;;;43.50;39.60;;;;;;4937594;28;20228;-87
2022/08/03 06:28:43;;;;;;;12.50;11.50;;;43.30;38.50;;;;;;4952436;28;20192;-88
2022/08/03 06:31:12;;;;;;;11.40;10.70;;;42.50;38.50;;;;;;4950718;28;20180;-88
2022/08/03 06:33:37;;;;;;;12.90;11.77;;;42.90;38.50;;;;;;4942526;28;20444;-90
2022/08/03 06:36:04;;;;;;;12.40;11.70;;;42.90;38.00;;;;;;4944012;28;20452;-88
2022/08/03 06:38:30;;;;;;;14.30;13.40;;;44.00;38.40;;;;;;4933993;28;20189;-90
2022/08/03 06:40:56;;;;;;;14.17;13.27;;;45.80;36.20;;;;;;4956094;28;20450;-91
2022/08/03 06:43:21;;;;;;;15.87;14.97;;;45.00;35.70;;;;;;4937475;28;21278;-88
2022/08/03 06:45:47;;;;;;;14.57;13.77;;;44.00;35.60;;;;;;4932344;28;20304;-86
2022/08/03 06:48:12;;;;;;;14.10;12.93;;;43.80;36.60;;;;;;4931092;28;20279;-87
2022/08/03 06:50:41;;;;;;;14.97;13.97;;;43.20;36.50;;;;;;4933236;28;20189;-89
2022/08/03 06:53:10;;;;;;;15.07;13.70;;;43.20;37.40;;;;;;4937826;28;20190;-89
2022/08/03 06:55:37;;;;;;;15.33;14.27;;;43.40;37.10;;;;;;4931699;28;20472;-88
2022/08/03 06:58:02;;;;;;;13.00;12.13;;;43.00;37.80;;;;;;4937751;28;20542;-87
2022/08/03 07:00:29;;;;;;;13.30;12.50;;;44.20;37.60;;;;;;4927715;28;20448;-88
2022/08/03 07:02:55;;;;;;;13.73;12.93;;;45.00;36.70;;;;;;4929885;28;20193;-89
2022/08/03 07:05:21;;;;;;;14.60;13.70;;;45.20;35.60;;;;;;4926873;28;20450;-89
2022/08/03 07:07:48;;;;;;;15.70;14.50;;;45.20;36.40;;;;;;4926001;28;22020;-90
2022/08/03 07:10:13;;;;;;;13.30;12.30;;;45.80;35.80;;;;;;4928210;28;20444;-88
2022/08/03 07:12:40;;;;;;;13.57;12.70;;;46.90;35.20;;;;;;4927618;28;20451;-90
2022/08/03 07:15:06;;;;;;;13.63;12.93;;;48.00;34.30;;;;;;4928506;28;20215;-87
2022/08/03 07:17:34;;;;;;;14.50;13.70;;;47.80;33.00;;;;;;4931206;28;20915;-91
2022/08/03 07:20:01;;;;;;;15.20;14.17;;;47.00;34.60;;;;;;4933674;28;20440;-87
2022/08/03 07:22:27;;;;;;;14.90;13.90;;;46.40;34.70;;;;;;4929731;28;20486;-89
2022/08/03 07:24:52;;;;;;;15.13;14.23;;;45.20;35.10;;;;;;4940586;28;20471;-88
2022/08/03 07:27:18;;;;;;;17.53;16.43;;;44.60;35.60;;;;;;4932330;28;20556;-89
2022/08/03 07:29:43;;;;;;;14.93;14.13;;;43.70;37.50;;;;;;4933253;28;20789;-88
2022/08/03 07:32:09;;;;;;;15.23;14.33;;;42.90;37.60;;;;;;4939551;28;20350;-87
2022/08/03 07:34:35;;;;;;;16.03;15.07;;;43.90;37.10;;;;;;4943508;28;20255;-90
2022/08/03 07:37:00;;;;;;;15.63;14.57;;;44.10;36.20;;;;;;4932287;28;20254;-89
2022/08/03 07:39:26;;;;;;;16.47;15.37;;;45.20;35.90;;;;;;4962121;28;20180;-87
2022/08/03 07:41:51;;;;;;;15.03;14.30;;;43.30;34.90;;;;;;4940990;28;20192;-88
2022/08/03 07:44:18;;;;;;;15.43;14.63;;;44.40;36.60;;;;;;4948555;28;20188;-87
2022/08/03 07:46:44;;;;;;;15.40;14.70;;;45.70;35.80;;;;;;4941558;28;20212;-87
2022/08/03 07:49:09;;;;;;;16.40;14.70;;;44.30;35.40;;;;;;4930578;28;22423;-88
2022/08/03 07:51:35;;;;;;;15.10;13.60;;;;;;;;;;4939884;28;20418;-86
2022/08/03 07:54:01;;;;;;;15.33;14.53;;;43.50;36.80;;;;;;4959592;28;20329;-90
2022/08/03 07:56:27;;;;;;;15.57;14.67;;;45.30;35.40;;;;;;4938600;28;20459;-88
2022/08/03 07:58:53;;;;;;;16.77;15.67;;;47.20;31.50;;;;;;4925325;28;20189;-91
2022/08/03 08:01:19;;;;;;;17.50;16.70;;;47.10;31.90;;;;;;4929380;28;20503;-87
2022/08/03 08:03:45;;;;;;;18.80;17.70;;;46.00;30.70;;;;;;4936260;28;21346;-89
2022/08/03 08:06:11;;;;;;;18.90;17.50;;;46.30;31.40;;;;;;4938912;28;20197;-87
2022/08/03 08:08:40;;;;;;;16.93;16.10;;;45.90;32.60;;;;;;4948702;28;20507;-91
2022/08/03 08:11:05;;;;;;;18.43;17.53;;;45.50;32.80;;;;;;4947363;28;20545;-90
2022/08/03 08:13:31;;;;;;;15.53;14.73;;;44.30;32.40;;;;;;4951861;28;20429;-90
2022/08/03 08:15:57;;;;;;;16.73;16.00;;;45.30;33.60;;;;;;4936106;28;20472;-87
2022/08/03 08:18:23;;;;;;;15.80;15.00;;;45.70;32.20;;;;;;4938801;28;20436;-90
2022/08/03 08:20:49;;;;;;;17.57;16.53;;;46.20;31.30;;;;;;4937860;28;20313;-88
2022/08/03 08:23:21;;;;;;;17.00;16.00;;;46.30;31.60;;;;;;4942602;28;20184;-89
2022/08/03 08:25:47;;;;;;;17.10;16.30;;;46.10;31.30;;;;;;4949281;28;20834;-86
2022/08/03 08:28:13;;;;;;;17.20;16.40;;;46.90;31.30;;;;;;4945547;28;20455;-89
2022/08/03 08:30:39;;;;;;;19.27;18.37;;;47.40;30.60;;;;;;4954817;28;20452;-90
2022/08/03 08:33:05;;;;;;;18.20;17.40;;;46.80;31.10;;;;;;4938786;28;20188;-90
2022/08/03 08:35:31;;;;;;;17.80;17.00;;;46.30;30.90;;;;;;4936543;28;20215;-91
2022/08/03 08:37:59;;;;;;;17.60;16.60;;;46.00;30.80;;;;;;5026074;28;20444;-89
2022/08/03 08:40:26;;;;;;;18.50;17.70;;;45.60;31.40;;;;;;4954924;28;20234;-88
2022/08/03 08:42:52;;;;;;;20.70;19.40;;;45.20;32.30;;;;;;4944535;28;20535;-90
2022/08/03 08:45:18;;;;;;;18.70;17.90;;;;;;;;;;4940741;28;20519;-88
2022/08/03 08:47:46;;;;;;;17.57;16.57;;;44.00;31.50;;;;;;4938610;28;20695;-87
2022/08/03 08:50:16;;;;;;;14.10;13.40;;;43.20;32.30;;;;;;4939574;28;20811;-89
2022/08/03 08:52:45;;;;;;;13.97;13.20;;;43.20;31.90;;;;;;4936899;28;20508;-87
2022/08/03 08:55:17;;;;;;;13.63;13.00;;;42.70;31.50;;;;;;4943763;28;20529;-89
2022/08/03 08:57:48;;;;;;;13.07;12.47;;;42.50;31.90;;;;;;4936894;28;20436;-89
2022/08/03 09:00:14;;;;;;;12.47;11.60;;;42.30;31.30;;;;;;4939918;28;20440;-87
2022/08/03 09:02:43;;;;;;;13.60;12.80;;;41.80;31.40;;;;;;4933751;28;20456;-89
2022/08/03 09:05:15;;;;;;;14.87;14.07;;;42.40;31.50;;;;;;4943367;28;20474;-89
2022/08/03 09:07:42;;;;;;;13.33;12.70;;;41.90;32.90;;;;;;4943930;28;20451;-88
2022/08/03 09:10:08;;;;;;;13.90;13.30;;;42.20;32.70;;;;;;4955852;28;20436;-88
2022/08/03 09:12:53;;;;;;;12.67;12.17;;;41.80;30.90;;;;;;4967600;28;20729;-90
2022/08/03 09:15:30;;;;;;;16.70;15.83;;;41.40;31.60;;;;;;4936097;28;20471;-87
2022/08/03 09:17:59;;;;;;;13.57;13.03;;;41.50;31.30;;;;;;4942365;28;20439;-87
2022/08/03 09:20:27;;;;;;;14.87;14.17;;;41.20;32.30;;;;;;4947947;28;20539;-88
2022/08/03 09:23:03;;;;;;;13.07;12.00;;;41.30;31.60;;;;;;4959119;28;20447;-89
2022/08/03 09:25:34;;;;;;;13.37;12.80;;;40.70;31.90;;;;;;4980570;28;20464;-88
2022/08/03 09:28:32;;;;;;;12.60;12.10;;;40.70;33.50;;;;;;4979792;28;20451;-90
2022/08/03 09:30:59;;;;;;;12.97;12.30;;;40.60;32.20;;;;;;4945245;28;20444;-89
2022/08/03 09:33:24;;;;;;;12.47;11.97;;;40.70;32.70;;;;;;4944935;29;20432;-89
2022/08/03 09:35:50;;;;;;;13.30;12.70;;;41.30;32.00;;;;;;4943927;28;20472;-88
2022/08/03 09:38:17;;;;;;;13.90;13.30;;;41.10;32.80;;;;;;4942516;28;20563;-88
2022/08/03 09:40:45;;;;;;;14.07;13.27;;;40.60;32.30;;;;;;4942394;28;20184;-90
2022/08/03 09:43:11;;;;;;;12.43;11.93;;;40.90;33.00;;;;;;4941132;28;20439;-89
2022/08/03 09:45:38;;;;;;;12.50;12.00;;;41.80;31.60;;;;;;4945645;28;21178;-91
2022/08/03 09:48:25;;;;;;;12.73;12.23;;;41.80;32.20;;;;;;4946560;28;20858;-90
2022/08/03 09:50:59;;;;;;;13.70;13.20;;;42.20;31.40;;;;;;4941329;28;20440;-88
2022/08/03 09:53:25;;;;;;;14.33;13.53;;;43.20;30.50;;;;;;4940662;28;20523;-87
2022/08/03 09:55:55;;;;;;;14.07;13.27;;;42.60;30.90;;;;;;4935397;28;20467;-88
2022/08/03 09:58:22;;;;;;;13.23;12.50;;;42.10;31.50;;;;;;4941060;28;20436;-88
2022/08/03 10:00:53;;;;;;;14.00;13.20;;;41.20;32.10;;;;;;4936207;28;21392;-88
2022/08/03 10:03:22;;;;;;;13.77;13.17;;;41.30;32.80;;;;;;4953083;28;20455;-89
2022/08/03 10:05:48;;;;;;;12.80;12.30;;;41.80;32.10;;;;;;4945782;28;20459;-87
2022/08/03 10:08:14;;;;;;;12.77;12.27;;;41.60;31.60;;;;;;4940055;28;20456;-88
2022/08/03 10:10:46;;;;;;;13.53;12.63;;;41.40;32.20;;;;;;4939949;28;20191;-89
2022/08/03 10:13:17;;;;;;;14.27;13.47;;;41.40;32.00;;;;;;4947906;28;20432;-86
2022/08/03 10:15:43;;;;;;;13.83;13.13;;;41.70;32.00;;;;;;4945103;28;20476;-89
2022/08/03 10:18:09;;;;;;;13.20;12.70;;;42.10;32.30;;;;;;4945037;28;20432;-87
2022/08/03 10:20:44;;;;;;;13.20;12.50;;;41.30;32.30;;;;;;5018280;28;20509;-89
2022/08/03 10:23:10;;;;;;;13.17;12.67;;;41.80;32.20;;;;;;4935905;28;20683;-88
2022/08/03 10:25:39;;;;;;;13.80;13.20;;;41.20;31.90;;;;;;4940233;28;20490;-88
2022/08/03 10:28:07;;;;;;;13.80;13.00;;;40.50;33.30;;;;;;4941576;28;20444;-88
2022/08/03 10:30:34;;;;;;;13.90;13.20;;;40.90;32.70;;;;;;4939667;28;21011;-91
2022/08/03 10:33:07;;;;;;;13.10;12.50;;;40.80;32.80;;;;;;4938179;28;21334;-88
2022/08/03 10:35:33;;;;;;;13.43;12.73;;;39.80;32.90;;;;;;4946242;28;20479;-86
2022/08/03 10:38:02;;;;;;;13.37;12.57;;;39.90;35.50;;;;;;4935834;28;20453;-90
2022/08/03 10:40:30;;;;;;;11.63;11.03;;;37.00;36.60;;;;;;4947820;28;20928;-88
2022/08/03 10:42:58;;;;;;;10.60;10.20;;;34.90;38.00;;;;;;4964562;28;20472;-87
2022/08/03 10:45:26;;;;;;;10.90;10.40;;;34.60;41.60;;;;;;4957355;28;20554;-88
2022/08/03 10:47:54;;;;;;;9.87;9.37;;;34.30;41.10;;;;;;5023702;28;20444;-88
2022/08/03 10:50:23;;;;;;;8.97;8.47;;;33.80;40.90;;;;;;4943181;28;20441;-88
2022/08/03 10:53:05;;;;;;;9.33;8.80;;;34.10;42.70;;;;;;4952159;28;20457;-89
2022/08/03 10:58:48;;;;;;;7.43;7.13;;;33.70;43.50;;;;;;4959930;28;20459;-87
2022/08/03 11:01:14;;;;;;;9.47;8.87;;;34.00;42.40;;;;;;4947555;28;20439;-86
2022/08/03 11:03:52;;;;;;;9.70;9.20;;;34.30;41.10;;;;;;4956203;28;20449;-88
2022/08/03 11:06:19;;;;;;;8.60;8.20;;;34.20;41.10;;;;;;4949558;28;20268;-88
2022/08/03 11:08:49;;;;;;;9.37;8.83;;;34.20;40.20;;;;;;4941350;28;20513;-87
2022/08/03 11:11:18;;;;;;;8.97;8.57;;;33.90;40.40;;;;;;4958061;28;20439;-87
2022/08/03 11:14:12;;;;;;;8.97;8.33;;;33.90;41.10;;;;;;4944499;29;20449;-90
2022/08/03 11:17:07;;;;;;;9.00;8.50;;;34.00;40.90;;;;;;4947193;28;20484;-86
2022/08/03 11:19:44;;;;;;;8.67;7.87;;;33.80;41.40;;;;;;4941550;28;20443;-89
2022/08/03 11:22:10;;;;;;;8.23;7.57;;;33.90;41.80;;;;;;4932901;28;20449;-87
2022/08/03 11:24:35;;;;;;;8.40;8.00;;;34.10;41.20;;;;;;4935262;28;20433;-87
2022/08/03 11:27:13;;;;;;;8.40;8.00;;;34.60;41.10;;;;;;4942060;28;20520;-87
2022/08/03 11:29:58;;;;;;;9.27;8.67;;;34.90;40.60;;;;;;4938913;28;20202;-87
2022/08/03 11:32:39;;;;;;;9.20;8.60;;;35.40;40.90;;;;;;4936295;28;20538;-88
2022/08/03 11:35:31;;;;;;;9.20;8.60;;;35.20;40.50;;;;;;4952561;28;21506;-86
2022/08/03 11:37:56;;;;;;;8.83;8.20;;;34.50;40.80;;;;;;4946397;28;20723;-86
2022/08/03 11:40:37;;;;;;;8.00;7.60;;;33.80;39.70;;;;;;4942756;28;21066;-88
2022/08/03 11:43:09;;;;;;;8.50;8.00;;;34.60;39.70;;;;;;4951935;28;20190;-88
2022/08/03 11:45:36;;;;;;;8.53;8.13;;;34.40;40.00;;;;;;4933997;28;20458;-90
2022/08/03 11:48:14;;;;;;;8.50;7.73;;;34.70;39.50;;;;;;4947518;28;21001;-87
2022/08/03 11:50:41;;;;;;;7.97;7.57;;;34.80;38.90;;;;;;4930864;28;20445;-90
2022/08/03 11:53:12;;;;;;;8.00;7.60;;;34.90;38.20;;;;;;4942643;28;20533;-89
2022/08/03 11:55:40;;;;;;;8.37;7.87;;;36.20;39.90;;;;;;4935062;28;20479;-89
2022/08/03 11:58:06;;;;;;;7.87;7.47;;;35.00;39.00;;;;;;4941266;28;20600;-88
2022/08/03 12:00:32;;;;;;;8.87;8.37;;;35.00;37.90;;;;;;4947008;28;20498;-90
2022/08/03 12:03:18;;;;;;;8.07;7.77;;;34.70;38.00;;;;;;4940054;28;20203;-88
2022/08/03 12:05:50;;;;;;;8.53;8.03;;;35.30;39.50;;;;;;4932754;28;20477;-90
2022/08/03 12:08:26;;;;;;;9.00;8.50;;;34.90;39.30;;;;;;4946892;28;20450;-90
2022/08/03 12:10:56;;;;;;;8.13;7.73;;;34.30;39.10;;;;;;4956675;28;20437;-93
2022/08/03 12:13:24;;;;;;;8.43;8.03;;;34.60;39.60;;;;;;4968743;28;20438;-91
2022/08/03 12:15:52;;;;;;;8.43;7.93;;;34.00;40.10;;;;;;4972806;28;20484;-89
2022/08/03 12:18:19;;;;;;;8.33;7.80;;;36.00;41.50;;;;;;4952821;28;20447;-92
2022/08/03 12:20:49;;;;;;;8.70;8.10;;;33.40;40.50;;;;;;4944310;28;20479;-88
2022/08/03 12:23:15;;;;;;;7.67;7.17;;;35.40;41.60;;;;;;4943341;28;20446;-91
2022/08/03 12:25:50;;;;;;;7.97;7.47;;;32.40;40.40;;;;;;4951842;28;20466;-91
2022/08/03 12:31:24;;;;;;;7.33;6.93;;;34.40;41.00;;;;;;4956703;29;20448;-90
2022/08/03 12:34:03;;;;;;;7.60;7.20;;;36.10;42.20;;;;;;4972878;28;20450;-90
2022/08/03 12:36:32;;;;;;;7.97;7.57;;;33.50;39.40;;;;;;4943959;28;20476;-89
2022/08/03 12:39:07;;;;;;;7.20;6.70;;;36.20;40.80;;;;;;4941330;28;20477;-90
2022/08/03 12:41:39;;;;;;;8.50;8.07;;;34.20;40.20;;;;;;4956086;28;20440;-88
2022/08/03 12:44:08;;;;;;;8.20;7.90;;;35.70;40.70;;;;;;4945613;28;20434;-89
2022/08/03 12:46:40;;;;;;;8.20;7.70;;;34.10;40.50;;;;;;4941000;28;20457;-88
2022/08/03 12:49:10;;;;;;;7.83;7.37;;;35.70;41.60;;;;;;4944987;28;20437;-91
2022/08/03 12:51:53;;;;;;;7.57;7.00;;;34.30;39.40;;;;;;4948638;28;20523;-92
2022/08/03 12:54:24;;;;;;;9.17;8.43;;;34.30;39.70;;;;;;4948040;28;20489;-90
2022/08/03 12:56:56;;;;;;;8.13;7.73;;;34.50;40.20;;;;;;4943005;28;20448;-91
2022/08/03 12:59:26;;;;;;;8.30;7.90;;;35.10;40.00;;;;;;4941533;28;20453;-89
2022/08/03 13:01:51;;;;;;;8.80;8.30;;;34.80;39.20;;;;;;4947864;28;20452;-88